CheckWX is a tool to help pilots better visualize weather data.  It is not intended as a substitute for an official pre-flight weather briefing.

02:44:50 UTC

LFPV TAF
Villacoublay-Vélizy (BA 107) Air Base Airport
Villacoublay/Vélizy, France
TAF LFPV 270200Z 2703/2803 21010G20KT 5000 -RA OVC006 TEMPO 2703/2718 BKN004 SCT015TCU BECMG 2718/2720 6000 NSW FEW009 TEMPO 2720/2803 23015G30KT 2500 SHRA SCT015TCU

Jan-27@
03:00 UTC

Jan-27 @ 03:00 UTC

Jan-27@
18:00 UTC

Jan-27 @ 18:00 UTC

TAF LFPV 270200Z 2703/2803 21010G20KT 5000 -RA OVC006
Wind
  • 210° at 10 KTS
  • {Gusting to 20 KTS
Conditions
Light Rain
Cloud Levels
  • Overcast at 600' AGL

Jan-27@
03:00 UTC

Jan-27 @ 03:00 UTC

Jan-27@
18:00 UTC

Jan-27 @ 18:00 UTC

TEMPO 2703/2718 BKN004 SCT015TCU

Temporary

Temporary Changes expected for less than half the time period

Cloud Levels
  • Broken at 400' AGL
  • Scattered at 1,500' AGL

Jan-27@
18:00 UTC

Jan-27 @ 18:00 UTC

Jan-28@
03:00 UTC

Jan-28 @ 03:00 UTC

BECMG 2718/2720 6000 NSW FEW009

Becoming

Becoming Conditions expected by Mon, Jan 27, 2020 @ 20:00 UTC

Wind
  • 210° at 10 KTS
  • {Gusting to 20 KTS
Conditions
No significant weather
Cloud Levels
  • Few at 900' AGL

Jan-27@
20:00 UTC

Jan-27 @ 20:00 UTC

Jan-28@
03:00 UTC

Jan-28 @ 03:00 UTC

TEMPO 2720/2803 23015G30KT 2500 SHRA SCT015TCU

Temporary

Temporary Changes expected for less than half the time period

Wind
  • 230° at 15 KTS
  • {Gusting to 30 KTS
Conditions
Rain
Cloud Levels
  • Scattered at 1,500' AGL